sensor_id;sensor_type;location;lat;lon;timestamp;pressure;altitude;pressure_sealevel;temperature;humidity
79729;BME280;69218;52.132;5.418;2024-03-02T00:01:24;99888.06;;;8.04;85.86
79729;BME280;69218;52.132;5.418;2024-03-02T00:03:50;99894.81;;;8.07;85.72
79729;BME280;69218;52.132;5.418;2024-03-02T00:06:21;99901.00;;;8.06;86.70
79729;BME280;69218;52.132;5.418;2024-03-02T00:08:48;99898.38;;;8.06;86.77
79729;BME280;69218;52.132;5.418;2024-03-02T00:11:15;99899.19;;;8.06;86.48
79729;BME280;69218;52.132;5.418;2024-03-02T00:13:42;99908.69;;;8.07;86.85
79729;BME280;69218;52.132;5.418;2024-03-02T00:16:12;99910.34;;;8.08;86.54
79729;BME280;69218;52.132;5.418;2024-03-02T00:18:39;99913.63;;;8.10;86.41
79729;BME280;69218;52.132;5.418;2024-03-02T00:21:06;99928.91;;;8.15;86.13
79729;BME280;69218;52.132;5.418;2024-03-02T00:23:36;99926.31;;;8.15;86.17
79729;BME280;69218;52.132;5.418;2024-03-02T00:26:03;99936.50;;;8.18;86.02
79729;BME280;69218;52.132;5.418;2024-03-02T00:28:31;99942.56;;;8.18;85.98
79729;BME280;69218;52.132;5.418;2024-03-02T00:31:05;99947.78;;;8.18;86.00
79729;BME280;69218;52.132;5.418;2024-03-02T00:33:46;99937.19;;;8.20;86.09
79729;BME280;69218;52.132;5.418;2024-03-02T00:36:22;99984.06;;;8.21;86.47
79729;BME280;69218;52.132;5.418;2024-03-02T00:38:50;99982.25;;;8.22;86.40
79729;BME280;69218;52.132;5.418;2024-03-02T00:41:21;99988.31;;;8.22;86.28
79729;BME280;69218;52.132;5.418;2024-03-02T00:44:04;99998.75;;;8.22;86.52
79729;BME280;69218;52.132;5.418;2024-03-02T00:46:42;100015.38;;;8.21;86.57
79729;BME280;69218;52.132;5.418;2024-03-02T00:49:21;100006.03;;;8.19;87.42
79729;BME280;69218;52.132;5.418;2024-03-02T00:51:51;100003.66;;;8.16;88.29
79729;BME280;69218;52.132;5.418;2024-03-02T00:54:20;99999.66;;;8.12;88.38
79729;BME280;69218;52.132;5.418;2024-03-02T00:56:48;100001.69;;;8.08;88.94
79729;BME280;69218;52.132;5.418;2024-03-02T00:59:17;100012.38;;;8.05;89.58
79729;BME280;69218;52.132;5.418;2024-03-02T01:01:45;100017.97;;;8.01;90.39
79729;BME280;69218;52.132;5.418;2024-03-02T01:04:16;100017.78;;;7.92;91.14
79729;BME280;69218;52.132;5.418;2024-03-02T01:06:43;100021.59;;;7.88;91.65
79729;BME280;69218;52.132;5.418;2024-03-02T01:09:12;100015.81;;;7.85;92.69
79729;BME280;69218;52.132;5.418;2024-03-02T01:11:39;100019.59;;;7.81;92.41
79729;BME280;69218;52.132;5.418;2024-03-02T01:14:06;100025.78;;;7.80;92.96
79729;BME280;69218;52.132;5.418;2024-03-02T01:16:32;100032.22;;;7.76;93.64
79729;BME280;69218;52.132;5.418;2024-03-02T01:18:59;100018.56;;;7.72;94.13
79729;BME280;69218;52.132;5.418;2024-03-02T01:21:26;100016.31;;;7.67;95.05
79729;BME280;69218;52.132;5.418;2024-03-02T01:23:53;100013.16;;;7.64;95.68
79729;BME280;69218;52.132;5.418;2024-03-02T01:26:19;100031.78;;;7.59;96.58
79729;BME280;69218;52.132;5.418;2024-03-02T01:28:46;100019.22;;;7.53;96.81
79729;BME280;69218;52.132;5.418;2024-03-02T01:31:12;100036.78;;;7.51;97.03
79729;BME280;69218;52.132;5.418;2024-03-02T01:33:39;100029.91;;;7.50;97.61
79729;BME280;69218;52.132;5.418;2024-03-02T01:36:06;100029.22;;;7.48;97.61
79729;BME280;69218;52.132;5.418;2024-03-02T01:38:34;100023.28;;;7.46;97.68
79729;BME280;69218;52.132;5.418;2024-03-02T01:41:01;100034.78;;;7.43;97.99
79729;BME280;69218;52.132;5.418;2024-03-02T01:43:28;100030.53;;;7.42;98.06
79729;BME280;69218;52.132;5.418;2024-03-02T01:45:55;100025.53;;;7.39;98.18
79729;BME280;69218;52.132;5.418;2024-03-02T01:48:23;100037.88;;;7.37;98.62
79729;BME280;69218;52.132;5.418;2024-03-02T01:50:50;100038.97;;;7.35;98.73
79729;BME280;69218;52.132;5.418;2024-03-02T01:53:16;100045.13;;;7.34;98.79
79729;BME280;69218;52.132;5.418;2024-03-02T01:55:43;100055.66;;;7.32;99.03
79729;BME280;69218;52.132;5.418;2024-03-02T01:58:09;100036.81;;;7.29;99.59
79729;BME280;69218;52.132;5.418;2024-03-02T02:00:36;100036.97;;;7.27;99.67
79729;BME280;69218;52.132;5.418;2024-03-02T02:03:03;100038.00;;;7.25;100.00
79729;BME280;69218;52.132;5.418;2024-03-02T02:05:30;100045.13;;;7.23;100.00
79729;BME280;69218;52.132;5.418;2024-03-02T02:07:57;100036.59;;;7.21;100.00
79729;BME280;69218;52.132;5.418;2024-03-02T02:10:24;100043.69;;;7.19;100.00
79729;BME280;69218;52.132;5.418;2024-03-02T02:12:51;100041.22;;;7.17;100.00
79729;BME280;69218;52.132;5.418;2024-03-02T02:15:36;100050.94;;;7.15;100.00
79729;BME280;69218;52.132;5.418;2024-03-02T02:18:03;100051.91;;;7.14;100.00
79729;BME280;69218;52.132;5.418;2024-03-02T02:20:30;100043.38;;;7.12;100.00
79729;BME280;69218;52.132;5.418;2024-03-02T02:23:01;100047.84;;;7.10;100.00
79729;BME280;69218;52.132;5.418;2024-03-02T02:25:29;100049.06;;;7.06;100.00
79729;BME280;69218;52.132;5.418;2024-03-02T02:27:56;100038.72;;;7.04;100.00
79729;BME280;69218;52.132;5.418;2024-03-02T02:30:31;100037.34;;;7.00;100.00
79729;BME280;69218;52.132;5.418;2024-03-02T02:32:58;100037.47;;;6.99;100.00
79729;BME280;69218;52.132;5.418;2024-03-02T02:35:25;100033.53;;;6.93;100.00
79729;BME280;69218;52.132;5.418;2024-03-02T02:37:53;100037.19;;;6.91;100.00
79729;BME280;69218;52.132;5.418;2024-03-02T02:40:21;100052.94;;;6.89;100.00
79729;BME280;69218;52.132;5.418;2024-03-02T02:42:47;100057.47;;;6.87;100.00
79729;BME280;69218;52.132;5.418;2024-03-02T02:45:14;100061.84;;;6.86;100.00
79729;BME280;69218;52.132;5.418;2024-03-02T02:47:43;100053.31;;;6.84;100.00
79729;BME280;69218;52.132;5.418;2024-03-02T02:50:11;100048.94;;;6.85;100.00
79729;BME280;69218;52.132;5.418;2024-03-02T02:52:39;100045.84;;;6.80;100.00
79729;BME280;69218;52.132;5.418;2024-03-02T02:55:08;100052.97;;;6.78;100.00
79729;BME280;69218;52.132;5.418;2024-03-02T02:57:36;100052.22;;;6.76;100.00
79729;BME280;69218;52.132;5.418;2024-03-02T03:00:09;100061.72;;;6.77;100.00
79729;BME280;69218;52.132;5.418;2024-03-02T03:02:41;100055.91;;;6.73;100.00
79729;BME280;69218;52.132;5.418;2024-03-02T03:05:09;100056.75;;;6.74;100.00
79729;BME280;69218;52.132;5.418;2024-03-02T03:07:37;100058.50;;;6.73;100.00
79729;BME280;69218;52.132;5.418;2024-03-02T03:10:04;100049.16;;;6.71;100.00
79729;BME280;69218;52.132;5.418;2024-03-02T03:12:30;100054.47;;;6.69;100.00
79729;BME280;69218;52.132;5.418;2024-03-02T03:15:00;100053.66;;;6.69;100.00
79729;BME280;69218;52.132;5.418;2024-03-02T03:17:27;100052.13;;;6.66;100.00
79729;BME280;69218;52.132;5.418;2024-03-02T03:19:54;100050.59;;;6.64;100.00
79729;BME280;69218;52.132;5.418;2024-03-02T03:22:21;100050.69;;;6.62;100.00
79729;BME280;69218;52.132;5.418;2024-03-02T03:24:47;100060.38;;;6.60;100.00
79729;BME280;69218;52.132;5.418;2024-03-02T03:27:14;100058.03;;;6.57;100.00
79729;BME280;69218;52.132;5.418;2024-03-02T03:29:40;100060.03;;;6.53;100.00
79729;BME280;69218;52.132;5.418;2024-03-02T03:32:07;100071.50;;;6.51;100.00
79729;BME280;69218;52.132;5.418;2024-03-02T03:34:34;100068.19;;;6.49;100.00
79729;BME280;69218;52.132;5.418;2024-03-02T03:37:02;100075.41;;;6.45;100.00
79729;BME280;69218;52.132;5.418;2024-03-02T03:39:28;100058.25;;;6.43;100.00
79729;BME280;69218;52.132;5.418;2024-03-02T03:41:55;100074.81;;;6.42;100.00
79729;BME280;69218;52.132;5.418;2024-03-02T03:44:21;100066.25;;;6.40;100.00
79729;BME280;69218;52.132;5.418;2024-03-02T03:46:48;100078.31;;;6.41;100.00
79729;BME280;69218;52.132;5.418;2024-03-02T03:49:15;100064.50;;;6.40;100.00
79729;BME280;69218;52.132;5.418;2024-03-02T03:51:41;100074.81;;;6.42;100.00
79729;BME280;69218;52.132;5.418;2024-03-02T03:54:08;100074.81;;;6.42;100.00
79729;BME280;69218;52.132;5.418;2024-03-02T03:56:34;100084.28;;;6.43;100.00
79729;BME280;69218;52.132;5.418;2024-03-02T03:59:01;100078.94;;;6.44;100.00
79729;BME280;69218;52.132;5.418;2024-03-02T04:01:28;100069.34;;;6.45;100.00
79729;BME280;69218;52.132;5.418;2024-03-02T04:03:54;100069.34;;;6.45;100.00
79729;BME280;69218;52.132;5.418;2024-03-02T04:06:21;100073.50;;;6.47;100.00
79729;BME280;69218;52.132;5.418;2024-03-02T04:08:47;100079.53;;;6.48;100.00
79729;BME280;69218;52.132;5.418;2024-03-02T04:11:14;100076.94;;;6.48;100.00
79729;BME280;69218;52.132;5.418;2024-03-02T04:13:41;100085.56;;;6.48;100.00
79729;BME280;69218;52.132;5.418;2024-03-02T04:16:07;100087.25;;;6.49;100.00
79729;BME280;69218;52.132;5.418;2024-03-02T04:18:34;100091.63;;;6.49;100.00
79729;BME280;69218;52.132;5.418;2024-03-02T04:21:01;100096.84;;;6.49;100.00
79729;BME280;69218;52.132;5.418;2024-03-02T04:23:28;100097.66;;;6.49;100.00
79729;BME280;69218;52.132;5.418;2024-03-02T04:25:54;100090.69;;;6.50;100.00
79729;BME280;69218;52.132;5.418;2024-03-02T04:28:20;100090.69;;;6.50;100.00
79729;BME280;69218;52.132;5.418;2024-03-02T04:30:47;100095.75;;;6.51;100.00
79729;BME280;69218;52.132;5.418;2024-03-02T04:33:13;100093.03;;;6.53;100.00
79729;BME280;69218;52.132;5.418;2024-03-02T04:35:40;100093.03;;;6.53;100.00
79729;BME280;69218;52.132;5.418;2024-03-02T04:38:07;100105.03;;;6.55;100.00
79729;BME280;69218;52.132;5.418;2024-03-02T04:40:33;100105.09;;;6.54;100.00
79729;BME280;69218;52.132;5.418;2024-03-02T04:42:59;100100.63;;;6.56;100.00
79729;BME280;69218;52.132;5.418;2024-03-02T04:45:26;100107.63;;;6.55;100.00
79729;BME280;69218;52.132;5.418;2024-03-02T04:47:53;100109.38;;;6.55;100.00
79729;BME280;69218;52.132;5.418;2024-03-02T04:50:19;100103.34;;;6.54;100.00
79729;BME280;69218;52.132;5.418;2024-03-02T04:52:46;100114.56;;;6.55;100.00
79729;BME280;69218;52.132;5.418;2024-03-02T04:55:12;100116.34;;;6.54;100.00
79729;BME280;69218;52.132;5.418;2024-03-02T04:57:54;100124.06;;;6.56;100.00
79729;BME280;69218;52.132;5.418;2024-03-02T05:00:23;100129.28;;;6.56;100.00
79729;BME280;69218;52.132;5.418;2024-03-02T05:02:50;100124.41;;;6.51;100.00
79729;BME280;69218;52.132;5.418;2024-03-02T05:05:17;100125.22;;;6.52;100.00
79729;BME280;69218;52.132;5.418;2024-03-02T05:07:44;100126.19;;;6.51;100.00
79729;BME280;69218;52.132;5.418;2024-03-02T05:10:11;100127.00;;;6.51;100.00
79729;BME280;69218;52.132;5.418;2024-03-02T05:12:41;100127.13;;;6.50;100.00
79729;BME280;69218;52.132;5.418;2024-03-02T05:15:13;100132.22;;;6.51;100.00
79729;BME280;69218;52.132;5.418;2024-03-02T05:17:41;100131.25;;;6.52;100.00
79729;BME280;69218;52.132;5.418;2024-03-02T05:20:11;100128.66;;;6.52;100.00
79729;BME280;69218;52.132;5.418;2024-03-02T05:22:38;100133.03;;;6.52;100.00
79729;BME280;69218;52.132;5.418;2024-03-02T05:25:06;100138.13;;;6.53;100.00
79729;BME280;69218;52.132;5.418;2024-03-02T05:27:33;100133.75;;;6.54;100.00
79729;BME280;69218;52.132;5.418;2024-03-02T05:30:00;100134.94;;;6.50;100.00
79729;BME280;69218;52.132;5.418;2024-03-02T05:32:26;100129.72;;;6.50;100.00
79729;BME280;69218;52.132;5.418;2024-03-02T05:34:54;100132.34;;;6.50;100.00
79729;BME280;69218;52.132;5.418;2024-03-02T05:37:21;100143.69;;;6.49;100.00
79729;BME280;69218;52.132;5.418;2024-03-02T05:39:48;100134.19;;;6.48;100.00
79729;BME280;69218;52.132;5.418;2024-03-02T05:42:14;100128.16;;;6.47;100.00
79729;BME280;69218;52.132;5.418;2024-03-02T05:44:43;100124.84;;;6.45;99.92
79729;BME280;69218;52.132;5.418;2024-03-02T05:47:09;100134.88;;;6.39;99.71
79729;BME280;69218;52.132;5.418;2024-03-02T05:49:36;100136.28;;;6.31;99.36
79729;BME280;69218;52.132;5.418;2024-03-02T05:52:03;100140.28;;;6.24;98.97
79729;BME280;69218;52.132;5.418;2024-03-02T05:54:29;100139.78;;;6.19;98.78
79729;BME280;69218;52.132;5.418;2024-03-02T05:56:56;100144.88;;;6.21;98.80
79729;BME280;69218;52.132;5.418;2024-03-02T05:59:22;100142.16;;;6.22;98.15
79729;BME280;69218;52.132;5.418;2024-03-02T06:01:49;100145.59;;;6.23;97.74
79729;BME280;69218;52.132;5.418;2024-03-02T06:04:18;100154.94;;;6.25;98.12
79729;BME280;69218;52.132;5.418;2024-03-02T06:06:45;100147.97;;;6.26;97.47
79729;BME280;69218;52.132;5.418;2024-03-02T06:09:12;100158.38;;;6.26;97.77
79729;BME280;69218;52.132;5.418;2024-03-02T06:11:40;100156.59;;;6.26;97.88
79729;BME280;69218;52.132;5.418;2024-03-02T06:14:07;100166.31;;;6.24;97.91
79729;BME280;69218;52.132;5.418;2024-03-02T06:16:34;100162.88;;;6.24;98.01
79729;BME280;69218;52.132;5.418;2024-03-02T06:19:01;100165.47;;;6.24;98.59
79729;BME280;69218;52.132;5.418;2024-03-02T06:21:28;100171.38;;;6.26;98.73
79729;BME280;69218;52.132;5.418;2024-03-02T06:23:55;100172.44;;;6.23;98.98
79729;BME280;69218;52.132;5.418;2024-03-02T06:26:23;100177.66;;;6.23;99.33
79729;BME280;69218;52.132;5.418;2024-03-02T06:28:51;100175.06;;;6.23;99.54
79729;BME280;69218;52.132;5.418;2024-03-02T06:31:18;100187.25;;;6.23;99.73
79729;BME280;69218;52.132;5.418;2024-03-02T06:33:45;100188.06;;;6.23;99.99
79729;BME280;69218;52.132;5.418;2024-03-02T06:36:11;100190.56;;;6.25;100.00
79729;BME280;69218;52.132;5.418;2024-03-02T06:38:38;100185.22;;;6.26;100.00
79729;BME280;69218;52.132;5.418;2024-03-02T06:41:09;100193.88;;;6.27;100.00
79729;BME280;69218;52.132;5.418;2024-03-02T06:43:35;100192.13;;;6.27;99.90
79729;BME280;69218;52.132;5.418;2024-03-02T06:46:02;100198.03;;;6.29;99.97
79729;BME280;69218;52.132;5.418;2024-03-02T06:48:29;100195.31;;;6.31;99.78
79729;BME280;69218;52.132;5.418;2024-03-02T06:50:56;100196.03;;;6.33;99.60
79729;BME280;69218;52.132;5.418;2024-03-02T06:53:24;100196.78;;;6.35;99.69
79729;BME280;69218;52.132;5.418;2024-03-02T06:55:51;100190.63;;;6.36;99.61
79729;BME280;69218;52.132;5.418;2024-03-02T06:58:17;100189.88;;;6.34;99.68
79729;BME280;69218;52.132;5.418;2024-03-02T07:00:44;100194.16;;;6.35;99.39
79729;BME280;69218;52.132;5.418;2024-03-02T07:03:10;100193.44;;;6.33;99.47
79729;BME280;69218;52.132;5.418;2024-03-02T07:05:37;100199.56;;;6.32;99.12
79729;BME280;69218;52.132;5.418;2024-03-02T07:08:04;100191.88;;;6.30;98.83
79729;BME280;69218;52.132;5.418;2024-03-02T07:10:31;100193.66;;;6.30;99.21
79729;BME280;69218;52.132;5.418;2024-03-02T07:12:58;100197.09;;;6.30;99.15
79729;BME280;69218;52.132;5.418;2024-03-02T07:15:24;100193.53;;;6.31;99.20
79729;BME280;69218;52.132;5.418;2024-03-02T07:17:54;100192.59;;;6.32;99.12
79729;BME280;69218;52.132;5.418;2024-03-02T07:20:20;100192.47;;;6.34;98.87
79729;BME280;69218;52.132;5.418;2024-03-02T07:22:47;100199.38;;;6.35;98.83
79729;BME280;69218;52.132;5.418;2024-03-02T07:25:13;100199.97;;;6.39;98.81
79729;BME280;69218;52.132;5.418;2024-03-02T07:27:43;100199.97;;;6.39;98.63
79729;BME280;69218;52.132;5.418;2024-03-02T07:30:14;100198.91;;;6.41;97.98
79729;BME280;69218;52.132;5.418;2024-03-02T07:32:42;100207.34;;;6.45;98.26
79729;BME280;69218;52.132;5.418;2024-03-02T07:35:12;100213.25;;;6.47;98.01
79729;BME280;69218;52.132;5.418;2024-03-02T07:37:41;100214.00;;;6.49;97.94
79729;BME280;69218;52.132;5.418;2024-03-02T07:40:09;100215.41;;;6.53;97.93
79729;BME280;69218;52.132;5.418;2024-03-02T07:42:38;100212.69;;;6.54;97.69
79729;BME280;69218;52.132;5.418;2024-03-02T07:45:06;100210.72;;;6.58;98.20
79729;BME280;69218;52.132;5.418;2024-03-02T07:47:34;100221.94;;;6.58;98.09
79729;BME280;69218;52.132;5.418;2024-03-02T07:50:01;100220.88;;;6.61;97.68
79729;BME280;69218;52.132;5.418;2024-03-02T07:52:28;100219.09;;;6.61;97.73
79729;BME280;69218;52.132;5.418;2024-03-02T07:54:54;100228.59;;;6.63;97.58
79729;BME280;69218;52.132;5.418;2024-03-02T07:57:21;100223.28;;;6.64;97.45
79729;BME280;69218;52.132;5.418;2024-03-02T07:59:48;100223.88;;;6.68;97.36
79729;BME280;69218;52.132;5.418;2024-03-02T08:02:15;100225.53;;;6.69;97.15
79729;BME280;69218;52.132;5.418;2024-03-02T08:04:42;100231.47;;;6.71;97.24
79729;BME280;69218;52.132;5.418;2024-03-02T08:07:08;100238.47;;;6.70;97.05
79729;BME280;69218;52.132;5.418;2024-03-02T08:09:35;100235.75;;;6.72;97.00
79729;BME280;69218;52.132;5.418;2024-03-02T08:12:02;100242.59;;;6.73;96.69
79729;BME280;69218;52.132;5.418;2024-03-02T08:14:28;100253.84;;;6.73;96.60
79729;BME280;69218;52.132;5.418;2024-03-02T08:16:55;100243.31;;;6.75;96.45
79729;BME280;69218;52.132;5.418;2024-03-02T08:19:22;100244.13;;;6.75;96.07
79729;BME280;69218;52.132;5.418;2024-03-02T08:21:49;100242.38;;;6.76;96.46
79729;BME280;69218;52.132;5.418;2024-03-02T08:24:16;100251.88;;;6.77;96.41
79729;BME280;69218;52.132;5.418;2024-03-02T08:26:42;100254.94;;;6.82;95.87
79729;BME280;69218;52.132;5.418;2024-03-02T08:29:09;100242.31;;;6.88;95.98
79729;BME280;69218;52.132;5.418;2024-03-02T08:31:36;100241.41;;;7.01;95.67
79729;BME280;69218;52.132;5.418;2024-03-02T08:34:06;100242.28;;;7.12;95.07
79729;BME280;69218;52.132;5.418;2024-03-02T08:36:33;100242.41;;;7.22;94.65
79729;BME280;69218;52.132;5.418;2024-03-02T08:38:59;100237.44;;;7.30;94.01
79729;BME280;69218;52.132;5.418;2024-03-02T08:41:28;100244.66;;;7.38;93.93
79729;BME280;69218;52.132;5.418;2024-03-02T08:43:55;100234.59;;;7.44;93.67
79729;BME280;69218;52.132;5.418;2024-03-02T08:46:21;100247.06;;;7.52;93.08
79729;BME280;69218;52.132;5.418;2024-03-02T08:48:48;100252.63;;;7.59;93.17
79729;BME280;69218;52.132;5.418;2024-03-02T08:51:14;100241.03;;;7.63;92.42
79729;BME280;69218;52.132;5.418;2024-03-02T08:53:41;100245.03;;;7.67;91.95
79729;BME280;69218;52.132;5.418;2024-03-02T08:56:07;100235.78;;;7.74;92.01
79729;BME280;69218;52.132;5.418;2024-03-02T08:58:34;100240.53;;;7.80;91.81
79729;BME280;69218;52.132;5.418;2024-03-02T09:01:01;100249.19;;;7.81;91.01
79729;BME280;69218;52.132;5.418;2024-03-02T09:03:35;100240.66;;;7.90;90.82
79729;BME280;69218;52.132;5.418;2024-03-02T09:06:02;100242.91;;;7.94;91.22
79729;BME280;69218;52.132;5.418;2024-03-02T09:08:29;100240.91;;;7.98;90.46
79729;BME280;69218;52.132;5.418;2024-03-02T09:10:56;100250.84;;;8.04;89.82
79729;BME280;69218;52.132;5.418;2024-03-02T09:13:22;100244.44;;;8.08;89.96
79729;BME280;69218;52.132;5.418;2024-03-02T09:15:49;100238.59;;;8.16;89.47
79729;BME280;69218;52.132;5.418;2024-03-02T09:18:15;100244.03;;;8.24;88.96
79729;BME280;69218;52.132;5.418;2024-03-02T09:20:42;100237.88;;;8.36;88.96
79729;BME280;69218;52.132;5.418;2024-03-02T09:23:08;100240.34;;;8.38;86.68
79729;BME280;69218;52.132;5.418;2024-03-02T09:25:35;100243.56;;;8.41;86.85
79729;BME280;69218;52.132;5.418;2024-03-02T09:28:07;100246.38;;;8.49;86.14
79729;BME280;69218;52.132;5.418;2024-03-02T09:30:34;100252.50;;;8.60;86.15
79729;BME280;69218;52.132;5.418;2024-03-02T09:33:00;100243.22;;;8.67;84.68
79729;BME280;69218;52.132;5.418;2024-03-02T09:35:29;100252.34;;;8.72;83.59
79729;BME280;69218;52.132;5.418;2024-03-02T09:37:56;100247.09;;;8.84;83.79
79729;BME280;69218;52.132;5.418;2024-03-02T09:40:22;100247.03;;;8.95;83.67
79729;BME280;69218;52.132;5.418;2024-03-02T09:42:52;100256.75;;;9.04;82.33
79729;BME280;69218;52.132;5.418;2024-03-02T09:45:24;100252.56;;;9.01;81.70
79729;BME280;69218;52.132;5.418;2024-03-02T09:47:54;100252.81;;;9.10;82.00
79729;BME280;69218;52.132;5.418;2024-03-02T09:50:24;100252.03;;;9.19;81.00
79729;BME280;69218;52.132;5.418;2024-03-02T09:52:50;100259.09;;;9.28;80.90
79729;BME280;69218;52.132;5.418;2024-03-02T09:55:19;100254.63;;;9.40;78.48
79729;BME280;69218;52.132;5.418;2024-03-02T09:57:46;100256.16;;;9.42;78.00
79729;BME280;69218;52.132;5.418;2024-03-02T10:00:13;100252.06;;;9.49;77.70
79729;BME280;69218;52.132;5.418;2024-03-02T10:02:42;100244.06;;;9.51;77.91
79729;BME280;69218;52.132;5.418;2024-03-02T10:05:09;100256.22;;;9.52;77.69
79729;BME280;69218;52.132;5.418;2024-03-02T10:07:35;100255.16;;;9.64;77.90
79729;BME280;69218;52.132;5.418;2024-03-02T10:10:13;100249.72;;;9.77;77.35
79729;BME280;69218;52.132;5.418;2024-03-02T10:12:40;100245.34;;;9.87;76.97
79729;BME280;69218;52.132;5.418;2024-03-02T10:15:07;100246.34;;;9.96;76.63
79729;BME280;69218;52.132;5.418;2024-03-02T10:17:35;100241.66;;;9.99;75.99
79729;BME280;69218;52.132;5.418;2024-03-02T10:20:21;100249.66;;;10.07;75.61
79729;BME280;69218;52.132;5.418;2024-03-02T10:22:49;100246.25;;;10.16;75.92
79729;BME280;69218;52.132;5.418;2024-03-02T10:25:33;100245.34;;;10.27;76.29
79729;BME280;69218;52.132;5.418;2024-03-02T10:28:03;100246.47;;;10.34;74.69
79729;BME280;69218;52.132;5.418;2024-03-02T10:30:33;100249.78;;;10.36;73.16
79729;BME280;69218;52.132;5.418;2024-03-02T10:33:03;100248.09;;;10.35;73.76
79729;BME280;69218;52.132;5.418;2024-03-02T10:35:32;100243.44;;;10.39;72.33
79729;BME280;69218;52.132;5.418;2024-03-02T10:37:59;100237.53;;;10.47;72.85
79729;BME280;69218;52.132;5.418;2024-03-02T10:40:27;100236.56;;;10.57;72.31
79729;BME280;69218;52.132;5.418;2024-03-02T10:42:54;100236.72;;;10.65;71.22
79729;BME280;69218;52.132;5.418;2024-03-02T10:45:24;100231.19;;;10.68;70.89
79729;BME280;69218;52.132;5.418;2024-03-02T10:47:51;100232.28;;;10.76;70.44
79729;BME280;69218;52.132;5.418;2024-03-02T10:50:17;100219.88;;;10.87;72.13
79729;BME280;69218;52.132;5.418;2024-03-02T10:52:44;100221.66;;;10.87;70.19
79729;BME280;69218;52.132;5.418;2024-03-02T10:55:11;100221.53;;;10.88;69.82
79729;BME280;69218;52.132;5.418;2024-03-02T10:57:49;100215.97;;;10.91;70.25
79729;BME280;69218;52.132;5.418;2024-03-02T11:00:18;100208.38;;;10.98;69.19
79729;BME280;69218;52.132;5.418;2024-03-02T11:02:55;100203.56;;;11.03;68.97
79729;BME280;69218;52.132;5.418;2024-03-02T11:05:31;100204.50;;;11.12;69.21
79729;BME280;69218;52.132;5.418;2024-03-02T11:08:02;100213.75;;;11.16;68.26
79729;BME280;69218;52.132;5.418;2024-03-02T11:10:35;100213.88;;;11.24;67.57
79729;BME280;69218;52.132;5.418;2024-03-02T11:13:09;100216.19;;;11.37;68.38
79729;BME280;69218;52.132;5.418;2024-03-02T11:15:36;100217.28;;;11.44;69.36
79729;BME280;69218;52.132;5.418;2024-03-02T11:18:04;100215.44;;;11.54;68.04
79729;BME280;69218;52.132;5.418;2024-03-02T11:20:37;100214.44;;;11.55;68.18
79729;BME280;69218;52.132;5.418;2024-03-02T11:23:09;100219.38;;;11.68;68.20
79729;BME280;69218;52.132;5.418;2024-03-02T11:25:36;100211.31;;;11.79;65.85
79729;BME280;69218;52.132;5.418;2024-03-02T11:28:04;100228.72;;;11.80;66.63
79729;BME280;69218;52.132;5.418;2024-03-02T11:33:06;100208.09;;;11.95;64.32
79729;BME280;69218;52.132;5.418;2024-03-02T11:35:44;100204.81;;;12.10;65.64
79729;BME280;69218;52.132;5.418;2024-03-02T11:38:14;100212.13;;;12.17;63.00
79729;BME280;69218;52.132;5.418;2024-03-02T11:40:41;100205.22;;;12.16;63.02
79729;BME280;69218;52.132;5.418;2024-03-02T11:43:11;100201.59;;;12.17;62.31
79729;BME280;69218;52.132;5.418;2024-03-02T11:45:42;100207.63;;;12.27;63.46
79729;BME280;69218;52.132;5.418;2024-03-02T11:48:13;100196.13;;;12.28;60.65
79729;BME280;69218;52.132;5.418;2024-03-02T11:50:42;100203.56;;;12.32;61.10
79729;BME280;69218;52.132;5.418;2024-03-02T11:53:12;100190.53;;;12.41;61.81
79729;BME280;69218;52.132;5.418;2024-03-02T11:55:40;100188.09;;;12.47;58.91
79729;BME280;69218;52.132;5.418;2024-03-02T11:58:07;100181.56;;;12.51;60.50
79729;BME280;69218;52.132;5.418;2024-03-02T12:00:34;100187.72;;;12.60;60.10
79729;BME280;69218;52.132;5.418;2024-03-02T12:03:04;100181.25;;;12.72;61.03
79729;BME280;69218;52.132;5.418;2024-03-02T12:05:31;100185.25;;;12.76;60.23
79729;BME280;69218;52.132;5.418;2024-03-02T12:07:59;100179.81;;;12.78;60.10
79729;BME280;69218;52.132;5.418;2024-03-02T12:10:26;100177.09;;;12.87;60.12
79729;BME280;69218;52.132;5.418;2024-03-02T12:13:07;100169.94;;;12.98;58.76
79729;BME280;69218;52.132;5.418;2024-03-02T12:15:35;100159.63;;;13.04;58.68
79729;BME280;69218;52.132;5.418;2024-03-02T12:18:05;100161.47;;;13.12;59.45
79729;BME280;69218;52.132;5.418;2024-03-02T12:20:33;100160.59;;;13.03;58.84
79729;BME280;69218;52.132;5.418;2024-03-02T12:23:02;100160.91;;;13.00;58.16
79729;BME280;69218;52.132;5.418;2024-03-02T12:25:32;100157.94;;;13.03;60.98
79729;BME280;69218;52.132;5.418;2024-03-02T12:28:00;100158.13;;;13.02;61.94
79729;BME280;69218;52.132;5.418;2024-03-02T12:30:35;100154.97;;;13.24;60.64
79729;BME280;69218;52.132;5.418;2024-03-02T12:33:02;100144.84;;;13.37;58.16
79729;BME280;69218;52.132;5.418;2024-03-02T12:35:29;100140.94;;;13.41;59.06
79729;BME280;69218;52.132;5.418;2024-03-02T12:37:56;100149.38;;;13.53;59.73
79729;BME280;69218;52.132;5.418;2024-03-02T12:40:22;100145.22;;;13.42;58.63
79729;BME280;69218;52.132;5.418;2024-03-02T12:42:50;100146.81;;;13.35;61.15
79729;BME280;69218;52.132;5.418;2024-03-02T12:45:18;100146.38;;;13.40;60.30
79729;BME280;69218;52.132;5.418;2024-03-02T12:47:52;100142.78;;;13.49;59.22
79729;BME280;69218;52.132;5.418;2024-03-02T12:50:19;100124.31;;;13.41;58.91
79729;BME280;69218;52.132;5.418;2024-03-02T12:52:53;100131.06;;;13.43;58.58
79729;BME280;69218;52.132;5.418;2024-03-02T12:55:21;100117.94;;;13.60;60.28
79729;BME280;69218;52.132;5.418;2024-03-02T12:57:51;100122.19;;;13.53;57.40
79729;BME280;69218;52.132;5.418;2024-03-02T13:00:20;100122.53;;;13.50;58.55
79729;BME280;69218;52.132;5.418;2024-03-02T13:02:47;100112.19;;;13.56;59.52